sensor_id;sensor_type;location;lat;lon;timestamp;P1;durP1;ratioP1;P2;durP2;ratioP2
7831;SDS011;3961;42.058;25.586;2022-11-11T00:01:31;56.07;;;34.30;;
7831;SDS011;3961;42.058;25.586;2022-11-11T00:03:57;57.00;;;36.80;;
7831;SDS011;3961;42.058;25.586;2022-11-11T00:06:23;60.67;;;36.60;;
7831;SDS011;3961;42.058;25.586;2022-11-11T00:08:48;51.30;;;32.83;;
7831;SDS011;3961;42.058;25.586;2022-11-11T00:11:14;59.13;;;35.93;;
7831;SDS011;3961;42.058;25.586;2022-11-11T00:13:41;53.63;;;34.77;;
7831;SDS011;3961;42.058;25.586;2022-11-11T00:16:09;54.27;;;36.57;;
7831;SDS011;3961;42.058;25.586;2022-11-11T00:18:39;64.87;;;35.47;;
7831;SDS011;3961;42.058;25.586;2022-11-11T00:21:25;57.70;;;35.70;;
7831;SDS011;3961;42.058;25.586;2022-11-11T00:23:51;51.43;;;33.53;;
7831;SDS011;3961;42.058;25.586;2022-11-11T00:26:35;56.50;;;35.07;;
7831;SDS011;3961;42.058;25.586;2022-11-11T00:29:01;57.00;;;33.50;;
7831;SDS011;3961;42.058;25.586;2022-11-11T00:31:26;65.80;;;35.80;;
7831;SDS011;3961;42.058;25.586;2022-11-11T00:33:52;56.37;;;34.43;;
7831;SDS011;3961;42.058;25.586;2022-11-11T00:36:18;57.27;;;34.70;;
7831;SDS011;3961;42.058;25.586;2022-11-11T00:38:44;52.70;;;35.10;;
7831;SDS011;3961;42.058;25.586;2022-11-11T00:41:10;55.20;;;35.63;;
7831;SDS011;3961;42.058;25.586;2022-11-11T00:43:45;58.23;;;34.70;;
7831;SDS011;3961;42.058;25.586;2022-11-11T00:46:12;59.07;;;35.80;;
7831;SDS011;3961;42.058;25.586;2022-11-11T00:48:57;58.90;;;32.40;;
7831;SDS011;3961;42.058;25.586;2022-11-11T00:51:58;59.77;;;33.60;;
7831;SDS011;3961;42.058;25.586;2022-11-11T00:54:23;52.97;;;34.17;;
7831;SDS011;3961;42.058;25.586;2022-11-11T00:56:49;53.47;;;33.17;;
7831;SDS011;3961;42.058;25.586;2022-11-11T00:59:14;60.80;;;34.40;;
7831;SDS011;3961;42.058;25.586;2022-11-11T01:01:40;58.20;;;34.27;;
7831;SDS011;3961;42.058;25.586;2022-11-11T01:04:05;59.97;;;34.63;;
7831;SDS011;3961;42.058;25.586;2022-11-11T01:06:31;54.97;;;34.60;;
7831;SDS011;3961;42.058;25.586;2022-11-11T01:08:56;58.53;;;35.30;;
7831;SDS011;3961;42.058;25.586;2022-11-11T01:11:23;68.80;;;45.87;;
7831;SDS011;3961;42.058;25.586;2022-11-11T01:13:49;69.40;;;42.37;;
7831;SDS011;3961;42.058;25.586;2022-11-11T01:16:19;64.97;;;39.13;;
7831;SDS011;3961;42.058;25.586;2022-11-11T01:18:47;64.13;;;38.47;;
7831;SDS011;3961;42.058;25.586;2022-11-11T01:21:15;57.47;;;35.13;;
7831;SDS011;3961;42.058;25.586;2022-11-11T01:23:43;57.27;;;36.50;;
7831;SDS011;3961;42.058;25.586;2022-11-11T01:26:16;65.20;;;38.77;;
7831;SDS011;3961;42.058;25.586;2022-11-11T01:28:43;65.07;;;38.63;;
7831;SDS011;3961;42.058;25.586;2022-11-11T01:31:10;65.37;;;38.77;;
7831;SDS011;3961;42.058;25.586;2022-11-11T01:33:37;50.07;;;34.47;;
7831;SDS011;3961;42.058;25.586;2022-11-11T01:38:34;59.30;;;35.83;;
7831;SDS011;3961;42.058;25.586;2022-11-11T01:41:00;57.13;;;35.10;;
7831;SDS011;3961;42.058;25.586;2022-11-11T01:43:46;57.73;;;34.47;;
7831;SDS011;3961;42.058;25.586;2022-11-11T01:59:38;54.03;;;35.90;;
7831;SDS011;3961;42.058;25.586;2022-11-11T02:02:19;60.90;;;33.87;;
7831;SDS011;3961;42.058;25.586;2022-11-11T02:04:49;65.07;;;34.03;;
7831;SDS011;3961;42.058;25.586;2022-11-11T02:07:34;54.00;;;33.57;;
7831;SDS011;3961;42.058;25.586;2022-11-11T02:10:04;59.57;;;35.33;;
7831;SDS011;3961;42.058;25.586;2022-11-11T02:12:33;58.97;;;32.87;;
7831;SDS011;3961;42.058;25.586;2022-11-11T02:15:17;60.03;;;33.97;;
7831;SDS011;3961;42.058;25.586;2022-11-11T02:17:43;66.83;;;37.33;;
7831;SDS011;3961;42.058;25.586;2022-11-11T02:20:14;61.67;;;35.67;;
7831;SDS011;3961;42.058;25.586;2022-11-11T02:25:19;63.60;;;36.90;;
7831;SDS011;3961;42.058;25.586;2022-11-11T02:27:49;54.57;;;33.70;;
7831;SDS011;3961;42.058;25.586;2022-11-11T02:30:18;62.67;;;37.87;;
7831;SDS011;3961;42.058;25.586;2022-11-11T02:32:49;63.00;;;38.23;;
7831;SDS011;3961;42.058;25.586;2022-11-11T02:35:16;81.23;;;41.53;;
7831;SDS011;3961;42.058;25.586;2022-11-11T02:37:44;61.70;;;36.27;;
7831;SDS011;3961;42.058;25.586;2022-11-11T02:40:13;104.63;;;46.23;;
7831;SDS011;3961;42.058;25.586;2022-11-11T02:42:42;98.10;;;46.43;;
7831;SDS011;3961;42.058;25.586;2022-11-11T02:45:08;56.23;;;33.23;;
7831;SDS011;3961;42.058;25.586;2022-11-11T02:47:34;48.33;;;30.50;;
7831;SDS011;3961;42.058;25.586;2022-11-11T02:49:59;55.57;;;31.37;;
7831;SDS011;3961;42.058;25.586;2022-11-11T02:52:25;43.03;;;29.60;;
7831;SDS011;3961;42.058;25.586;2022-11-11T02:54:51;52.93;;;31.33;;
7831;SDS011;3961;42.058;25.586;2022-11-11T02:57:16;56.23;;;34.80;;
7831;SDS011;3961;42.058;25.586;2022-11-11T02:59:42;70.43;;;40.73;;
7831;SDS011;3961;42.058;25.586;2022-11-11T03:02:07;75.40;;;40.70;;
7831;SDS011;3961;42.058;25.586;2022-11-11T03:04:33;132.33;;;60.77;;
7831;SDS011;3961;42.058;25.586;2022-11-11T03:06:59;85.83;;;46.43;;
7831;SDS011;3961;42.058;25.586;2022-11-11T03:09:25;85.20;;;43.10;;
7831;SDS011;3961;42.058;25.586;2022-11-11T03:11:51;79.80;;;41.97;;
7831;SDS011;3961;42.058;25.586;2022-11-11T03:14:17;53.07;;;31.20;;
7831;SDS011;3961;42.058;25.586;2022-11-11T03:16:42;74.37;;;39.43;;
7831;SDS011;3961;42.058;25.586;2022-11-11T03:19:26;60.53;;;35.83;;
7831;SDS011;3961;42.058;25.586;2022-11-11T03:21:52;52.10;;;31.23;;
7831;SDS011;3961;42.058;25.586;2022-11-11T03:24:20;55.23;;;34.57;;
7831;SDS011;3961;42.058;25.586;2022-11-11T03:26:46;59.17;;;35.40;;
7831;SDS011;3961;42.058;25.586;2022-11-11T03:29:11;102.23;;;47.57;;
7831;SDS011;3961;42.058;25.586;2022-11-11T03:31:37;123.43;;;54.43;;
7831;SDS011;3961;42.058;25.586;2022-11-11T03:34:03;94.17;;;46.00;;
7831;SDS011;3961;42.058;25.586;2022-11-11T03:36:44;86.83;;;44.03;;
7831;SDS011;3961;42.058;25.586;2022-11-11T03:39:28;75.97;;;41.67;;
7831;SDS011;3961;42.058;25.586;2022-11-11T03:41:57;85.60;;;45.30;;
7831;SDS011;3961;42.058;25.586;2022-11-11T03:44:23;81.30;;;44.30;;
7831;SDS011;3961;42.058;25.586;2022-11-11T03:46:49;76.47;;;42.67;;
7831;SDS011;3961;42.058;25.586;2022-11-11T03:49:14;81.53;;;47.03;;
7831;SDS011;3961;42.058;25.586;2022-11-11T03:51:40;77.47;;;45.33;;
7831;SDS011;3961;42.058;25.586;2022-11-11T03:54:05;86.13;;;50.87;;
7831;SDS011;3961;42.058;25.586;2022-11-11T03:56:31;93.27;;;49.90;;
7831;SDS011;3961;42.058;25.586;2022-11-11T03:58:56;99.63;;;56.40;;
7831;SDS011;3961;42.058;25.586;2022-11-11T04:01:22;96.67;;;54.03;;
7831;SDS011;3961;42.058;25.586;2022-11-11T04:04:07;103.00;;;53.57;;
7831;SDS011;3961;42.058;25.586;2022-11-11T04:06:51;82.30;;;47.93;;
7831;SDS011;3961;42.058;25.586;2022-11-11T04:09:36;92.13;;;51.47;;
7831;SDS011;3961;42.058;25.586;2022-11-11T04:12:21;104.67;;;59.77;;
7831;SDS011;3961;42.058;25.586;2022-11-11T04:14:47;88.13;;;49.13;;
7831;SDS011;3961;42.058;25.586;2022-11-11T04:17:31;67.77;;;41.73;;
7831;SDS011;3961;42.058;25.586;2022-11-11T04:19:57;64.97;;;41.20;;
7831;SDS011;3961;42.058;25.586;2022-11-11T04:22:41;83.40;;;47.37;;
7831;SDS011;3961;42.058;25.586;2022-11-11T04:25:07;76.83;;;44.77;;
7831;SDS011;3961;42.058;25.586;2022-11-11T04:27:51;71.37;;;40.27;;
7831;SDS011;3961;42.058;25.586;2022-11-11T04:30:40;67.37;;;40.33;;
7831;SDS011;3961;42.058;25.586;2022-11-11T04:33:06;75.37;;;42.60;;
7831;SDS011;3961;42.058;25.586;2022-11-11T04:35:31;54.13;;;31.67;;
7831;SDS011;3961;42.058;25.586;2022-11-11T04:37:57;53.07;;;32.57;;
7831;SDS011;3961;42.058;25.586;2022-11-11T04:40:42;54.37;;;33.30;;
7831;SDS011;3961;42.058;25.586;2022-11-11T04:43:26;61.70;;;34.77;;
7831;SDS011;3961;42.058;25.586;2022-11-11T04:45:52;55.43;;;33.43;;
7831;SDS011;3961;42.058;25.586;2022-11-11T04:48:17;54.13;;;34.27;;
7831;SDS011;3961;42.058;25.586;2022-11-11T04:50:44;58.40;;;33.50;;
7831;SDS011;3961;42.058;25.586;2022-11-11T04:53:13;51.90;;;32.90;;
7831;SDS011;3961;42.058;25.586;2022-11-11T04:55:39;51.87;;;30.97;;
7831;SDS011;3961;42.058;25.586;2022-11-11T04:58:26;45.60;;;30.77;;
7831;SDS011;3961;42.058;25.586;2022-11-11T05:00:53;51.60;;;31.47;;
7831;SDS011;3961;42.058;25.586;2022-11-11T05:03:19;51.87;;;33.00;;
7831;SDS011;3961;42.058;25.586;2022-11-11T05:05:48;52.17;;;32.10;;
7831;SDS011;3961;42.058;25.586;2022-11-11T05:08:43;54.87;;;33.23;;
7831;SDS011;3961;42.058;25.586;2022-11-11T05:13:48;59.33;;;34.07;;
7831;SDS011;3961;42.058;25.586;2022-11-11T05:16:36;47.30;;;30.53;;
7831;SDS011;3961;42.058;25.586;2022-11-11T05:19:22;55.70;;;29.97;;
7831;SDS011;3961;42.058;25.586;2022-11-11T05:24:45;53.27;;;30.03;;
7831;SDS011;3961;42.058;25.586;2022-11-11T05:27:29;52.93;;;30.50;;
7831;SDS011;3961;42.058;25.586;2022-11-11T05:29:55;50.83;;;31.30;;
7831;SDS011;3961;42.058;25.586;2022-11-11T05:32:21;64.23;;;32.27;;
7831;SDS011;3961;42.058;25.586;2022-11-11T05:34:47;63.77;;;33.43;;
7831;SDS011;3961;42.058;25.586;2022-11-11T05:37:13;64.10;;;34.17;;
7831;SDS011;3961;42.058;25.586;2022-11-11T05:39:40;55.67;;;35.97;;
7831;SDS011;3961;42.058;25.586;2022-11-11T05:42:05;62.37;;;36.23;;
7831;SDS011;3961;42.058;25.586;2022-11-11T05:44:31;69.70;;;38.33;;
7831;SDS011;3961;42.058;25.586;2022-11-11T05:46:56;71.30;;;39.33;;
7831;SDS011;3961;42.058;25.586;2022-11-11T05:49:22;59.03;;;38.30;;
7831;SDS011;3961;42.058;25.586;2022-11-11T05:51:49;64.27;;;41.03;;
7831;SDS011;3961;42.058;25.586;2022-11-11T05:54:17;79.43;;;50.77;;
7831;SDS011;3961;42.058;25.586;2022-11-11T05:56:42;77.17;;;47.53;;
7831;SDS011;3961;42.058;25.586;2022-11-11T05:59:08;83.53;;;48.07;;
7831;SDS011;3961;42.058;25.586;2022-11-11T06:01:34;86.30;;;50.90;;
7831;SDS011;3961;42.058;25.586;2022-11-11T06:04:00;93.83;;;55.13;;
7831;SDS011;3961;42.058;25.586;2022-11-11T06:06:26;83.10;;;50.70;;
7831;SDS011;3961;42.058;25.586;2022-11-11T06:08:51;86.37;;;49.27;;
7831;SDS011;3961;42.058;25.586;2022-11-11T06:11:17;92.27;;;53.20;;
7831;SDS011;3961;42.058;25.586;2022-11-11T06:13:43;83.27;;;52.03;;
7831;SDS011;3961;42.058;25.586;2022-11-11T06:16:09;85.87;;;51.53;;
7831;SDS011;3961;42.058;25.586;2022-11-11T06:18:34;84.77;;;49.07;;
7831;SDS011;3961;42.058;25.586;2022-11-11T06:21:00;72.13;;;43.63;;
7831;SDS011;3961;42.058;25.586;2022-11-11T06:23:27;60.33;;;36.77;;
7831;SDS011;3961;42.058;25.586;2022-11-11T06:25:53;57.50;;;34.77;;
7831;SDS011;3961;42.058;25.586;2022-11-11T06:28:44;61.17;;;36.00;;
7831;SDS011;3961;42.058;25.586;2022-11-11T06:31:15;56.03;;;34.23;;
7831;SDS011;3961;42.058;25.586;2022-11-11T06:33:42;65.07;;;37.80;;
7831;SDS011;3961;42.058;25.586;2022-11-11T06:36:09;62.63;;;36.83;;
7831;SDS011;3961;42.058;25.586;2022-11-11T06:38:36;65.77;;;36.90;;
7831;SDS011;3961;42.058;25.586;2022-11-11T06:41:01;65.00;;;37.57;;
7831;SDS011;3961;42.058;25.586;2022-11-11T06:43:27;65.17;;;38.07;;
7831;SDS011;3961;42.058;25.586;2022-11-11T06:45:53;63.13;;;37.87;;
7831;SDS011;3961;42.058;25.586;2022-11-11T06:48:19;64.23;;;38.30;;
7831;SDS011;3961;42.058;25.586;2022-11-11T06:50:46;65.27;;;41.17;;
7831;SDS011;3961;42.058;25.586;2022-11-11T06:53:12;64.50;;;39.87;;
7831;SDS011;3961;42.058;25.586;2022-11-11T06:55:39;72.80;;;43.83;;
7831;SDS011;3961;42.058;25.586;2022-11-11T07:00:32;67.83;;;41.43;;
7831;SDS011;3961;42.058;25.586;2022-11-11T07:02:58;68.97;;;37.80;;
7831;SDS011;3961;42.058;25.586;2022-11-11T07:05:23;70.37;;;39.20;;
7831;SDS011;3961;42.058;25.586;2022-11-11T07:07:49;61.00;;;37.63;;
7831;SDS011;3961;42.058;25.586;2022-11-11T07:10:14;62.63;;;37.47;;
7831;SDS011;3961;42.058;25.586;2022-11-11T07:12:42;90.13;;;56.77;;
7831;SDS011;3961;42.058;25.586;2022-11-11T07:15:08;72.60;;;40.67;;
7831;SDS011;3961;42.058;25.586;2022-11-11T07:17:34;102.13;;;61.97;;
7831;SDS011;3961;42.058;25.586;2022-11-11T07:20:00;63.17;;;35.87;;
7831;SDS011;3961;42.058;25.586;2022-11-11T07:22:27;55.97;;;35.23;;
7831;SDS011;3961;42.058;25.586;2022-11-11T07:24:52;57.07;;;34.57;;
7831;SDS011;3961;42.058;25.586;2022-11-11T07:27:18;52.77;;;32.97;;
7831;SDS011;3961;42.058;25.586;2022-11-11T07:29:43;60.33;;;34.97;;
7831;SDS011;3961;42.058;25.586;2022-11-11T07:32:09;53.67;;;33.37;;
7831;SDS011;3961;42.058;25.586;2022-11-11T07:34:34;57.53;;;35.00;;
7831;SDS011;3961;42.058;25.586;2022-11-11T07:37:00;52.80;;;33.27;;
7831;SDS011;3961;42.058;25.586;2022-11-11T07:39:26;114.70;;;71.90;;
7831;SDS011;3961;42.058;25.586;2022-11-11T07:41:51;55.70;;;35.03;;
7831;SDS011;3961;42.058;25.586;2022-11-11T07:44:17;49.33;;;34.07;;
7831;SDS011;3961;42.058;25.586;2022-11-11T07:46:42;53.40;;;33.03;;
7831;SDS011;3961;42.058;25.586;2022-11-11T07:49:08;57.93;;;32.73;;
7831;SDS011;3961;42.058;25.586;2022-11-11T07:51:33;54.37;;;32.73;;
7831;SDS011;3961;42.058;25.586;2022-11-11T07:53:59;47.83;;;30.03;;
7831;SDS011;3961;42.058;25.586;2022-11-11T07:56:24;49.60;;;28.73;;
7831;SDS011;3961;42.058;25.586;2022-11-11T07:58:50;47.53;;;27.93;;
7831;SDS011;3961;42.058;25.586;2022-11-11T08:01:15;51.63;;;25.50;;
7831;SDS011;3961;42.058;25.586;2022-11-11T08:03:41;38.80;;;25.40;;
7831;SDS011;3961;42.058;25.586;2022-11-11T08:06:14;43.33;;;27.60;;
7831;SDS011;3961;42.058;25.586;2022-11-11T08:08:41;38.13;;;25.73;;
7831;SDS011;3961;42.058;25.586;2022-11-11T08:11:06;38.27;;;25.03;;
7831;SDS011;3961;42.058;25.586;2022-11-11T08:13:32;39.03;;;26.00;;
7831;SDS011;3961;42.058;25.586;2022-11-11T08:16:08;46.90;;;29.17;;
7831;SDS011;3961;42.058;25.586;2022-11-11T08:18:35;86.10;;;58.37;;
7831;SDS011;3961;42.058;25.586;2022-11-11T08:21:01;38.10;;;26.77;;
7831;SDS011;3961;42.058;25.586;2022-11-11T08:23:28;50.13;;;28.80;;
7831;SDS011;3961;42.058;25.586;2022-11-11T08:25:57;42.10;;;29.67;;
7831;SDS011;3961;42.058;25.586;2022-11-11T08:28:24;43.30;;;28.97;;
7831;SDS011;3961;42.058;25.586;2022-11-11T08:30:50;46.43;;;30.63;;
7831;SDS011;3961;42.058;25.586;2022-11-11T08:33:16;44.87;;;29.33;;
7831;SDS011;3961;42.058;25.586;2022-11-11T08:35:41;46.30;;;30.03;;
7831;SDS011;3961;42.058;25.586;2022-11-11T08:38:07;45.43;;;30.70;;
7831;SDS011;3961;42.058;25.586;2022-11-11T08:40:32;43.63;;;30.50;;
7831;SDS011;3961;42.058;25.586;2022-11-11T08:42:58;48.53;;;32.67;;
7831;SDS011;3961;42.058;25.586;2022-11-11T08:45:24;54.27;;;32.97;;
7831;SDS011;3961;42.058;25.586;2022-11-11T08:47:50;51.77;;;34.70;;
7831;SDS011;3961;42.058;25.586;2022-11-11T08:50:16;48.20;;;34.30;;
7831;SDS011;3961;42.058;25.586;2022-11-11T08:52:45;54.00;;;35.10;;
7831;SDS011;3961;42.058;25.586;2022-11-11T08:55:15;48.13;;;32.67;;
7831;SDS011;3961;42.058;25.586;2022-11-11T08:57:41;57.57;;;36.07;;
7831;SDS011;3961;42.058;25.586;2022-11-11T09:00:07;53.00;;;33.50;;
7831;SDS011;3961;42.058;25.586;2022-11-11T09:02:33;54.07;;;35.63;;
7831;SDS011;3961;42.058;25.586;2022-11-11T09:04:59;52.07;;;34.90;;
7831;SDS011;3961;42.058;25.586;2022-11-11T09:07:25;51.83;;;35.17;;
7831;SDS011;3961;42.058;25.586;2022-11-11T09:09:51;51.73;;;35.23;;
7831;SDS011;3961;42.058;25.586;2022-11-11T09:12:16;61.20;;;35.93;;
7831;SDS011;3961;42.058;25.586;2022-11-11T09:14:42;58.73;;;36.87;;
7831;SDS011;3961;42.058;25.586;2022-11-11T09:17:08;50.90;;;34.53;;
7831;SDS011;3961;42.058;25.586;2022-11-11T09:19:33;62.13;;;36.63;;
7831;SDS011;3961;42.058;25.586;2022-11-11T09:21:59;67.07;;;36.53;;
7831;SDS011;3961;42.058;25.586;2022-11-11T09:24:24;54.67;;;35.83;;
7831;SDS011;3961;42.058;25.586;2022-11-11T09:26:50;59.57;;;37.60;;
7831;SDS011;3961;42.058;25.586;2022-11-11T09:29:16;59.90;;;37.17;;
7831;SDS011;3961;42.058;25.586;2022-11-11T09:31:41;58.40;;;35.80;;
7831;SDS011;3961;42.058;25.586;2022-11-11T09:34:07;66.10;;;38.97;;
7831;SDS011;3961;42.058;25.586;2022-11-11T09:36:33;57.83;;;36.63;;
7831;SDS011;3961;42.058;25.586;2022-11-11T09:38:59;61.53;;;37.40;;
7831;SDS011;3961;42.058;25.586;2022-11-11T09:44:02;63.23;;;36.70;;
7831;SDS011;3961;42.058;25.586;2022-11-11T09:52:01;59.60;;;36.73;;
7831;SDS011;3961;42.058;25.586;2022-11-11T09:54:42;57.73;;;37.67;;
7831;SDS011;3961;42.058;25.586;2022-11-11T09:57:16;56.17;;;36.77;;
7831;SDS011;3961;42.058;25.586;2022-11-11T09:59:51;57.90;;;37.50;;
7831;SDS011;3961;42.058;25.586;2022-11-11T10:04:55;68.17;;;37.57;;
7831;SDS011;3961;42.058;25.586;2022-11-11T10:07:39;55.33;;;37.13;;
7831;SDS011;3961;42.058;25.586;2022-11-11T10:10:26;62.30;;;36.70;;
7831;SDS011;3961;42.058;25.586;2022-11-11T10:13:13;55.23;;;35.17;;
7831;SDS011;3961;42.058;25.586;2022-11-11T10:15:48;57.67;;;37.07;;
7831;SDS011;3961;42.058;25.586;2022-11-11T10:21:13;62.47;;;39.30;;
7831;SDS011;3961;42.058;25.586;2022-11-11T10:23:42;55.97;;;38.37;;
7831;SDS011;3961;42.058;25.586;2022-11-11T10:26:19;56.30;;;35.83;;
7831;SDS011;3961;42.058;25.586;2022-11-11T10:28:51;222.37;;;110.40;;
7831;SDS011;3961;42.058;25.586;2022-11-11T10:31:18;60.20;;;38.47;;
7831;SDS011;3961;42.058;25.586;2022-11-11T10:33:52;62.10;;;35.70;;
7831;SDS011;3961;42.058;25.586;2022-11-11T10:36:22;51.07;;;34.90;;
7831;SDS011;3961;42.058;25.586;2022-11-11T10:38:58;58.57;;;37.43;;
7831;SDS011;3961;42.058;25.586;2022-11-11T10:41:39;58.03;;;36.77;;
7831;SDS011;3961;42.058;25.586;2022-11-11T10:44:47;58.20;;;37.10;;
7831;SDS011;3961;42.058;25.586;2022-11-11T10:47:04;55.77;;;35.87;;
7831;SDS011;3961;42.058;25.586;2022-11-11T10:52:35;57.10;;;35.93;;
7831;SDS011;3961;42.058;25.586;2022-11-11T10:55:08;71.73;;;43.60;;
7831;SDS011;3961;42.058;25.586;2022-11-11T11:00:16;54.07;;;34.93;;
7831;SDS011;3961;42.058;25.586;2022-11-11T11:02:44;57.07;;;37.13;;
7831;SDS011;3961;42.058;25.586;2022-11-11T11:05:20;56.43;;;36.10;;
7831;SDS011;3961;42.058;25.586;2022-11-11T11:07:54;53.07;;;34.40;;
7831;SDS011;3961;42.058;25.586;2022-11-11T11:10:26;56.07;;;35.77;;
7831;SDS011;3961;42.058;25.586;2022-11-11T11:15:54;60.40;;;37.07;;
7831;SDS011;3961;42.058;25.586;2022-11-11T11:18:22;65.17;;;37.10;;
7831;SDS011;3961;42.058;25.586;2022-11-11T11:23:34;58.63;;;36.50;;
7831;SDS011;3961;42.058;25.586;2022-11-11T11:26:02;61.70;;;37.73;;
7831;SDS011;3961;42.058;25.586;2022-11-11T11:28:29;62.60;;;34.90;;
7831;SDS011;3961;42.058;25.586;2022-11-11T11:31:02;48.57;;;31.77;;
7831;SDS011;3961;42.058;25.586;2022-11-11T11:33:49;54.53;;;33.00;;
7831;SDS011;3961;42.058;25.586;2022-11-11T11:36:19;50.93;;;31.73;;
7831;SDS011;3961;42.058;25.586;2022-11-11T11:38:46;58.97;;;33.37;;
7831;SDS011;3961;42.058;25.586;2022-11-11T11:41:18;52.63;;;33.33;;
7831;SDS011;3961;42.058;25.586;2022-11-11T11:44:01;49.97;;;32.67;;
7831;SDS011;3961;42.058;25.586;2022-11-11T11:46:27;57.70;;;32.80;;
7831;SDS011;3961;42.058;25.586;2022-11-11T12:05:19;63.27;;;34.73;;
7831;SDS011;3961;42.058;25.586;2022-11-11T12:10:25;52.93;;;34.17;;
7831;SDS011;3961;42.058;25.586;2022-11-11T12:13:39;51.23;;;33.23;;
7831;SDS011;3961;42.058;25.586;2022-11-11T12:27:00;61.50;;;36.87;;
7831;SDS011;3961;42.058;25.586;2022-11-11T12:51:55;64.90;;;41.30;;
7831;SDS011;3961;42.058;25.586;2022-11-11T13:00:17;63.03;;;41.90;;
7831;SDS011;3961;42.058;25.586;2022-11-11T13:05:33;69.73;;;45.83;;
7831;SDS011;3961;42.058;25.586;2022-11-11T13:08:13;79.93;;;49.77;;
7831;SDS011;3961;42.058;25.586;2022-11-11T13:11:11;81.13;;;49.23;;
7831;SDS011;3961;42.058;25.586;2022-11-11T13:16:16;86.07;;;49.80;;
7831;SDS011;3961;42.058;25.586;2022-11-11T13:18:48;81.63;;;49.77;;
7831;SDS011;3961;42.058;25.586;2022-11-11T13:21:24;83.30;;;49.00;;
7831;SDS011;3961;42.058;25.586;2022-11-11T13:23:56;76.90;;;47.53;;
7831;SDS011;3961;42.058;25.586;2022-11-11T13:28:57;74.30;;;46.67;;
7831;SDS011;3961;42.058;25.586;2022-11-11T13:31:37;66.93;;;43.77;;
7831;SDS011;3961;42.058;25.586;2022-11-11T13:34:09;67.80;;;44.20;;
7831;SDS011;3961;42.058;25.586;2022-11-11T13:36:46;65.33;;;43.27;;
7831;SDS011;3961;42.058;25.586;2022-11-11T13:39:22;63.33;;;42.67;;
7831;SDS011;3961;42.058;25.586;2022-11-11T13:41:52;65.03;;;43.57;;
7831;SDS011;3961;42.058;25.586;2022-11-11T13:44:54;66.83;;;42.37;;
7831;SDS011;3961;42.058;25.586;2022-11-11T13:47:18;61.23;;;41.87;;
7831;SDS011;3961;42.058;25.586;2022-11-11T13:49:56;68.20;;;42.67;;
7831;SDS011;3961;42.058;25.586;2022-11-11T13:52:31;65.07;;;43.57;;
7831;SDS011;3961;42.058;25.586;2022-11-11T13:55:01;62.90;;;42.13;;
7831;SDS011;3961;42.058;25.586;2022-11-11T13:57:43;68.37;;;43.43;;
7831;SDS011;3961;42.058;25.586;2022-11-11T14:02:45;67.83;;;42.10;;
7831;SDS011;3961;42.058;25.586;2022-11-11T14:10:09;67.80;;;45.33;;
7831;SDS011;3961;42.058;25.586;2022-11-11T14:12:55;79.10;;;49.57;;
7831;SDS011;3961;42.058;25.586;2022-11-11T14:18:36;95.07;;;57.37;;
7831;SDS011;3961;42.058;25.586;2022-11-11T14:21:04;30.47;;;19.93;;
7831;SDS011;3961;42.058;25.586;2022-11-11T14:23:41;31.57;;;17.80;;
7831;SDS011;3961;42.058;25.586;2022-11-11T14:28:56;9.30;;;5.93;;
7831;SDS011;3961;42.058;25.586;2022-11-11T14:34:32;5.40;;;4.30;;
7831;SDS011;3961;42.058;25.586;2022-11-11T14:37:29;5.33;;;3.97;;
7831;SDS011;3961;42.058;25.586;2022-11-11T14:40:09;6.57;;;4.83;;
7831;SDS011;3961;42.058;25.586;2022-11-11T14:45:02;3.97;;;3.47;;
7831;SDS011;3961;42.058;25.586;2022-11-11T14:47:49;7.20;;;4.83;;
7831;SDS011;3961;42.058;25.586;2022-11-11T14:53:00;5.80;;;4.63;;
7831;SDS011;3961;42.058;25.586;2022-11-11T14:55:33;6.37;;;4.73;;
7831;SDS011;3961;42.058;25.586;2022-11-11T14:58:15;8.27;;;5.00;;
7831;SDS011;3961;42.058;25.586;2022-11-11T15:03:29;5.53;;;3.83;;
7831;SDS011;3961;42.058;25.586;2022-11-11T15:06:00;4.67;;;3.57;;
7831;SDS011;3961;42.058;25.586;2022-11-11T15:11:43;4.03;;;3.30;;
7831;SDS011;3961;42.058;25.586;2022-11-11T15:14:24;5.33;;;3.30;;
7831;SDS011;3961;42.058;25.586;2022-11-11T15:25:14;5.33;;;3.20;;
7831;SDS011;3961;42.058;25.586;2022-11-11T15:30:17;4.70;;;3.20;;
7831;SDS011;3961;42.058;25.586;2022-11-11T15:38:13;3.80;;;3.20;;
7831;SDS011;3961;42.058;25.586;2022-11-11T15:43:24;3.57;;;2.90;;
7831;SDS011;3961;42.058;25.586;2022-11-11T15:45:53;3.67;;;3.10;;
7831;SDS011;3961;42.058;25.586;2022-11-11T15:48:22;4.17;;;3.17;;
7831;SDS011;3961;42.058;25.586;2022-11-11T15:50:50;3.67;;;2.37;;
7831;SDS011;3961;42.058;25.586;2022-11-11T15:53:20;3.20;;;2.67;;
7831;SDS011;3961;42.058;25.586;2022-11-11T15:55:57;4.50;;;2.90;;
7831;SDS011;3961;42.058;25.586;2022-11-11T15:58:28;2.83;;;2.53;;
7831;SDS011;3961;42.058;25.586;2022-11-11T16:00:56;2.90;;;2.60;;
7831;SDS011;3961;42.058;25.586;2022-11-11T16:03:32;2.83;;;2.50;;
7831;SDS011;3961;42.058;25.586;2022-11-11T16:06:05;2.93;;;2.50;;
7831;SDS011;3961;42.058;25.586;2022-11-11T16:08:34;3.70;;;2.83;;
7831;SDS011;3961;42.058;25.586;2022-11-11T16:11:00;3.00;;;2.70;;
7831;SDS011;3961;42.058;25.586;2022-11-11T16:13:39;6.10;;;3.00;;
7831;SDS011;3961;42.058;25.586;2022-11-11T16:16:13;3.43;;;3.00;;
7831;SDS011;3961;42.058;25.586;2022-11-11T16:23:46;3.50;;;3.20;;
7831;SDS011;3961;42.058;25.586;2022-11-11T16:26:12;4.80;;;3.00;;
7831;SDS011;3961;42.058;25.586;2022-11-11T16:28:42;3.93;;;2.93;;
7831;SDS011;3961;42.058;25.586;2022-11-11T16:31:55;3.20;;;2.63;;
7831;SDS011;3961;42.058;25.586;2022-11-11T16:37:02;3.00;;;2.57;;
7831;SDS011;3961;42.058;25.586;2022-11-11T16:39:28;3.70;;;2.40;;
7831;SDS011;3961;42.058;25.586;2022-11-11T16:41:58;2.60;;;2.40;;
7831;SDS011;3961;42.058;25.586;2022-11-11T16:46:59;3.03;;;2.33;;
7831;SDS011;3961;42.058;25.586;2022-11-11T16:49:28;2.60;;;2.40;;
7831;SDS011;3961;42.058;25.586;2022-11-11T16:51:55;3.47;;;2.70;;
7831;SDS011;3961;42.058;25.586;2022-11-11T16:54:32;3.33;;;2.53;;
7831;SDS011;3961;42.058;25.586;2022-11-11T16:57:02;3.13;;;2.73;;
7831;SDS011;3961;42.058;25.586;2022-11-11T16:59:38;3.87;;;2.63;;
7831;SDS011;3961;42.058;25.586;2022-11-11T17:02:17;3.13;;;2.83;;
7831;SDS011;3961;42.058;25.586;2022-11-11T17:04:48;4.00;;;3.33;;
7831;SDS011;3961;42.058;25.586;2022-11-11T17:09:52;3.37;;;2.90;;
7831;SDS011;3961;42.058;25.586;2022-11-11T17:12:28;6.90;;;3.03;;
7831;SDS011;3961;42.058;25.586;2022-11-11T17:14:55;4.10;;;2.80;;
7831;SDS011;3961;42.058;25.586;2022-11-11T17:17:20;5.50;;;3.63;;
7831;SDS011;3961;42.058;25.586;2022-11-11T17:19:46;3.60;;;3.17;;
7831;SDS011;3961;42.058;25.586;2022-11-11T17:22:12;5.00;;;3.60;;
7831;SDS011;3961;42.058;25.586;2022-11-11T17:24:37;7.53;;;3.50;;
7831;SDS011;3961;42.058;25.586;2022-11-11T17:27:03;8.03;;;4.10;;
7831;SDS011;3961;42.058;25.586;2022-11-11T17:29:29;5.03;;;3.43;;
7831;SDS011;3961;42.058;25.586;2022-11-11T17:31:55;4.90;;;3.73;;
7831;SDS011;3961;42.058;25.586;2022-11-11T17:34:21;4.90;;;3.70;;
7831;SDS011;3961;42.058;25.586;2022-11-11T17:36:46;7.50;;;4.30;;
7831;SDS011;3961;42.058;25.586;2022-11-11T17:39:12;5.93;;;4.20;;
7831;SDS011;3961;42.058;25.586;2022-11-11T17:41:37;6.40;;;3.90;;
7831;SDS011;3961;42.058;25.586;2022-11-11T17:44:03;6.00;;;4.13;;
7831;SDS011;3961;42.058;25.586;2022-11-11T17:46:29;6.90;;;3.93;;
7831;SDS011;3961;42.058;25.586;2022-11-11T17:48:54;5.13;;;3.70;;
7831;SDS011;3961;42.058;25.586;2022-11-11T17:51:21;4.97;;;3.10;;
7831;SDS011;3961;42.058;25.586;2022-11-11T17:53:48;6.23;;;3.97;;